BBX56 EHKD-EHJA
Flight info
| Callsign | BBX56 |
|---|---|
| Flight time | 0h 46m |
| Altitude | 4000 |
| Route | GIKOV3L GOLOR TOPPA ROKAN EKDAR |
| Aircraft | A139/L-SDG/S |
Departure
| Time | 2026-05-04 11:17 |
|---|---|
| Airport | De Kooy Airfield / Den Helder Naval Air Station (EHKD) |
Arrival
| Time | 2026-05-04 12:03 |
|---|---|
| Airport | J6-A Heliport (EHJA) |
| Time | Latitude | Longitude | Altitude | Speed | Heading |
|---|---|---|---|---|---|
| 2026-05-04 11:10 | 52.91970 | 4.77932 | 1 ft | 0 kts | 171° |
| 2026-05-04 11:13 | 52.91954 | 4.77929 | 1 ft | 5 kts | 205° |
| 2026-05-04 11:13 | 52.91942 | 4.77891 | 2 ft | 6 kts | 275° |
| 2026-05-04 11:14 | 52.91951 | 4.77847 | 1 ft | 5 kts | 307° |
| 2026-05-04 11:14 | 52.91957 | 4.77757 | 1 ft | 0 kts | 240° |
| 2026-05-04 11:16 | 52.91982 | 4.77656 | 49 ft | 35 kts | 32° |
| 2026-05-04 11:16 | 52.92312 | 4.78023 | 262 ft | 69 kts | 27° |
| 2026-05-04 11:16 | 52.92720 | 4.78487 | 583 ft | 74 kts | 26° |
| 2026-05-04 11:17 | 52.93029 | 4.79254 | 910 ft | 82 kts | 57° |
| 2026-05-04 11:17 | 52.93238 | 4.80145 | 1241 ft | 85 kts | 59° |
| 2026-05-04 11:19 | 52.95567 | 4.83052 | 3079 ft | 103 kts | 294° |
| 2026-05-04 11:19 | 52.95921 | 4.81940 | 3222 ft | 114 kts | 289° |
| 2026-05-04 11:19 | 52.96256 | 4.80706 | 3396 ft | 119 kts | 286° |
| 2026-05-04 11:19 | 52.96574 | 4.79421 | 3593 ft | 119 kts | 284° |
| 2026-05-04 11:20 | 52.96879 | 4.78115 | 3714 ft | 126 kts | 283° |
| 2026-05-04 11:20 | 52.97194 | 4.76721 | 3871 ft | 130 kts | 283° |
| 2026-05-04 11:20 | 52.97510 | 4.75317 | 4014 ft | 131 kts | 282° |
| 2026-05-04 11:20 | 52.97823 | 4.73919 | 4039 ft | 131 kts | 281° |
| 2026-05-04 11:22 | 53.01048 | 4.64950 | 3944 ft | 138 kts | 316° |
| 2026-05-04 11:22 | 53.01839 | 4.64040 | 3959 ft | 139 kts | 317° |
| 2026-05-04 11:23 | 53.02640 | 4.63129 | 3988 ft | 140 kts | 317° |
| 2026-05-04 11:23 | 53.03447 | 4.62214 | 4007 ft | 139 kts | 317° |
| 2026-05-04 11:24 | 53.08235 | 4.56789 | 3996 ft | 138 kts | 317° |
| 2026-05-04 11:25 | 53.09026 | 4.55892 | 3991 ft | 137 kts | 317° |
| 2026-05-04 11:25 | 53.09820 | 4.54992 | 3983 ft | 138 kts | 317° |
| 2026-05-04 11:25 | 53.10610 | 4.54094 | 3985 ft | 138 kts | 317° |
| 2026-05-04 11:26 | 53.12138 | 4.52152 | 3978 ft | 139 kts | 321° |
| 2026-05-04 11:27 | 53.17755 | 4.45950 | 4004 ft | 137 kts | 317° |
| 2026-05-04 11:28 | 53.18544 | 4.45050 | 3997 ft | 138 kts | 317° |
| 2026-05-04 11:28 | 53.19330 | 4.44154 | 3996 ft | 137 kts | 317° |
| 2026-05-04 11:28 | 53.20118 | 4.43255 | 3998 ft | 137 kts | 317° |
| 2026-05-04 11:28 | 53.20911 | 4.42349 | 4002 ft | 137 kts | 317° |
| 2026-05-04 11:29 | 53.21639 | 4.41374 | 4042 ft | 132 kts | 298° |
| 2026-05-04 11:29 | 53.22042 | 4.39947 | 3965 ft | 139 kts | 284° |
| 2026-05-04 11:29 | 53.22396 | 4.38451 | 4001 ft | 139 kts | 283° |
| 2026-05-04 11:29 | 53.22738 | 4.36961 | 4031 ft | 138 kts | 283° |
| 2026-05-04 11:31 | 53.25082 | 4.26377 | 4011 ft | 138 kts | 282° |
| 2026-05-04 11:33 | 53.27397 | 4.15820 | 4016 ft | 139 kts | 281° |
| 2026-05-04 11:33 | 53.27726 | 4.14313 | 4014 ft | 139 kts | 281° |
| 2026-05-04 11:33 | 53.28059 | 4.12789 | 4014 ft | 139 kts | 282° |
| 2026-05-04 11:34 | 53.28388 | 4.11285 | 4009 ft | 139 kts | 281° |
| 2026-05-04 11:34 | 53.28723 | 4.09746 | 4011 ft | 139 kts | 282° |
| 2026-05-04 11:34 | 53.29051 | 4.08239 | 4014 ft | 138 kts | 282° |
| 2026-05-04 11:34 | 53.29381 | 4.06722 | 4011 ft | 138 kts | 282° |
| 2026-05-04 11:35 | 53.29705 | 4.05229 | 4017 ft | 138 kts | 282° |
| 2026-05-04 11:35 | 53.30036 | 4.03714 | 4015 ft | 138 kts | 282° |
| 2026-05-04 11:35 | 53.30365 | 4.02203 | 4013 ft | 137 kts | 281° |
| 2026-05-04 11:35 | 53.30692 | 4.00702 | 4014 ft | 137 kts | 281° |
| 2026-05-04 11:36 | 53.31017 | 3.99205 | 4016 ft | 137 kts | 281° |
| 2026-05-04 11:36 | 53.31343 | 3.97696 | 4004 ft | 138 kts | 281° |
| 2026-05-04 11:36 | 53.31669 | 3.96192 | 4009 ft | 138 kts | 281° |
| 2026-05-04 11:36 | 53.31996 | 3.94682 | 4007 ft | 138 kts | 281° |
| 2026-05-04 11:37 | 53.32327 | 3.93150 | 4019 ft | 138 kts | 281° |
| 2026-05-04 11:37 | 53.32652 | 3.91642 | 4024 ft | 138 kts | 281° |
| 2026-05-04 11:37 | 53.32980 | 3.90126 | 4015 ft | 139 kts | 281° |
| 2026-05-04 11:37 | 53.33309 | 3.88603 | 4023 ft | 139 kts | 281° |
| 2026-05-04 11:38 | 53.33636 | 3.87085 | 4022 ft | 139 kts | 281° |
| 2026-05-04 11:38 | 53.33967 | 3.85550 | 4026 ft | 138 kts | 282° |
| 2026-05-04 11:38 | 53.34290 | 3.84053 | 4021 ft | 137 kts | 281° |
| 2026-05-04 11:38 | 53.34617 | 3.82536 | 4019 ft | 137 kts | 282° |
| 2026-05-04 11:39 | 53.34937 | 3.81045 | 4018 ft | 136 kts | 282° |
| 2026-05-04 11:39 | 53.35262 | 3.79533 | 4013 ft | 137 kts | 282° |
| 2026-05-04 11:40 | 53.37208 | 3.70463 | 4023 ft | 138 kts | 282° |
| 2026-05-04 11:41 | 53.37533 | 3.68938 | 4033 ft | 138 kts | 282° |
| 2026-05-04 11:41 | 53.37857 | 3.67422 | 4037 ft | 137 kts | 281° |
| 2026-05-04 11:41 | 53.38177 | 3.65916 | 4004 ft | 138 kts | 282° |
| 2026-05-04 11:41 | 53.38505 | 3.64379 | 4010 ft | 138 kts | 282° |
| 2026-05-04 11:42 | 53.38825 | 3.62880 | 4032 ft | 137 kts | 282° |
| 2026-05-04 11:42 | 53.39148 | 3.61363 | 4027 ft | 137 kts | 282° |
| 2026-05-04 11:42 | 53.39470 | 3.59852 | 4023 ft | 138 kts | 282° |
| 2026-05-04 11:42 | 53.39791 | 3.58345 | 4014 ft | 138 kts | 282° |
| 2026-05-04 11:43 | 53.40115 | 3.56824 | 4006 ft | 139 kts | 283° |
| 2026-05-04 11:43 | 53.40732 | 3.55583 | 4047 ft | 137 kts | 310° |
| 2026-05-04 11:43 | 53.41449 | 3.54540 | 3993 ft | 136 kts | 310° |
| 2026-05-04 11:43 | 53.42172 | 3.53481 | 3994 ft | 136 kts | 310° |
| 2026-05-04 11:44 | 53.42903 | 3.52433 | 3995 ft | 137 kts | 311° |
| 2026-05-04 11:44 | 53.43626 | 3.51394 | 4002 ft | 137 kts | 311° |
| 2026-05-04 11:44 | 53.44356 | 3.50350 | 4007 ft | 137 kts | 311° |
| 2026-05-04 11:44 | 53.45084 | 3.49309 | 4024 ft | 137 kts | 311° |
| 2026-05-04 11:45 | 53.45820 | 3.48260 | 4040 ft | 136 kts | 311° |
| 2026-05-04 11:45 | 53.46549 | 3.47220 | 3993 ft | 138 kts | 311° |
| 2026-05-04 11:45 | 53.47281 | 3.46169 | 4011 ft | 137 kts | 311° |
| 2026-05-04 11:45 | 53.48010 | 3.45141 | 4038 ft | 136 kts | 310° |
| 2026-05-04 11:46 | 53.48736 | 3.44099 | 4010 ft | 136 kts | 311° |
| 2026-05-04 11:46 | 53.49459 | 3.43063 | 4010 ft | 136 kts | 311° |
| 2026-05-04 11:46 | 53.50182 | 3.42031 | 3999 ft | 137 kts | 311° |
| 2026-05-04 11:46 | 53.50912 | 3.40990 | 3997 ft | 137 kts | 311° |
| 2026-05-04 11:47 | 53.51631 | 3.39959 | 4012 ft | 137 kts | 311° |
| 2026-05-04 11:47 | 53.52358 | 3.38924 | 4023 ft | 137 kts | 311° |
| 2026-05-04 11:47 | 53.53085 | 3.37881 | 4009 ft | 137 kts | 311° |
| 2026-05-04 11:47 | 53.53820 | 3.36829 | 4004 ft | 137 kts | 312° |
| 2026-05-04 11:48 | 53.54551 | 3.35786 | 4029 ft | 136 kts | 311° |
| 2026-05-04 11:48 | 53.55267 | 3.34759 | 4018 ft | 136 kts | 310° |
| 2026-05-04 11:48 | 53.55985 | 3.33738 | 3993 ft | 137 kts | 310° |
| 2026-05-04 11:48 | 53.56711 | 3.32688 | 3874 ft | 136 kts | 310° |
| 2026-05-04 11:49 | 53.57426 | 3.31659 | 3732 ft | 136 kts | 309° |
| 2026-05-04 11:49 | 53.58150 | 3.30615 | 3589 ft | 137 kts | 310° |
| 2026-05-04 11:49 | 53.58874 | 3.29574 | 3470 ft | 136 kts | 310° |
| 2026-05-04 11:49 | 53.59583 | 3.28559 | 3366 ft | 132 kts | 309° |
| 2026-05-04 11:50 | 53.60283 | 3.27545 | 3202 ft | 134 kts | 309° |
| 2026-05-04 11:50 | 53.60983 | 3.26531 | 3127 ft | 128 kts | 310° |
| 2026-05-04 11:50 | 53.61646 | 3.25581 | 2985 ft | 127 kts | 310° |
| 2026-05-04 11:50 | 53.62313 | 3.24619 | 2834 ft | 126 kts | 310° |
| 2026-05-04 11:51 | 53.62985 | 3.23648 | 2701 ft | 125 kts | 311° |
| 2026-05-04 11:51 | 53.63646 | 3.22694 | 2547 ft | 125 kts | 311° |
| 2026-05-04 11:51 | 53.64297 | 3.21764 | 2465 ft | 119 kts | 311° |
| 2026-05-04 11:51 | 53.64904 | 3.20897 | 2385 ft | 110 kts | 310° |
| 2026-05-04 11:52 | 53.65467 | 3.20071 | 2243 ft | 104 kts | 313° |
| 2026-05-04 11:52 | 53.66005 | 3.19290 | 2085 ft | 102 kts | 314° |
| 2026-05-04 11:52 | 53.66406 | 3.18332 | 1987 ft | 103 kts | 286° |
| 2026-05-04 11:52 | 53.66848 | 3.17388 | 2001 ft | 101 kts | 324° |
| 2026-05-04 11:53 | 53.67411 | 3.16748 | 2018 ft | 97 kts | 321° |
| 2026-05-04 11:53 | 53.67968 | 3.16071 | 1989 ft | 99 kts | 321° |
| 2026-05-04 11:53 | 53.68516 | 3.15378 | 1995 ft | 100 kts | 320° |
| 2026-05-04 11:53 | 53.69076 | 3.14651 | 2012 ft | 101 kts | 319° |
| 2026-05-04 11:55 | 53.72721 | 3.09143 | 1814 ft | 100 kts | 314° |
| 2026-05-04 11:55 | 53.73238 | 3.08348 | 1699 ft | 100 kts | 314° |
| 2026-05-04 11:56 | 53.73747 | 3.07568 | 1591 ft | 99 kts | 314° |
| 2026-05-04 11:56 | 53.74245 | 3.06809 | 1488 ft | 93 kts | 313° |
| 2026-05-04 11:56 | 53.74719 | 3.06081 | 1343 ft | 92 kts | 313° |
| 2026-05-04 11:56 | 53.75192 | 3.05352 | 1193 ft | 92 kts | 312° |
| 2026-05-04 11:57 | 53.75660 | 3.04634 | 1060 ft | 91 kts | 312° |
| 2026-05-04 11:57 | 53.76140 | 3.03892 | 904 ft | 93 kts | 313° |
| 2026-05-04 11:57 | 53.76609 | 3.03172 | 769 ft | 91 kts | 313° |
| 2026-05-04 11:57 | 53.77080 | 3.02445 | 620 ft | 91 kts | 313° |
| 2026-05-04 11:58 | 53.77563 | 3.01699 | 507 ft | 93 kts | 314° |
| 2026-05-04 11:58 | 53.78032 | 3.00987 | 525 ft | 88 kts | 315° |
| 2026-05-04 11:58 | 53.78482 | 3.00305 | 527 ft | 86 kts | 315° |
| 2026-05-04 11:58 | 53.78915 | 2.99643 | 541 ft | 82 kts | 315° |
| 2026-05-04 11:59 | 53.79342 | 2.98994 | 544 ft | 80 kts | 315° |
| 2026-05-04 11:59 | 53.79762 | 2.98351 | 525 ft | 81 kts | 315° |
| 2026-05-04 11:59 | 53.80178 | 2.97714 | 533 ft | 80 kts | 315° |
| 2026-05-04 11:59 | 53.80586 | 2.97090 | 554 ft | 76 kts | 315° |
| 2026-05-04 12:00 | 53.80979 | 2.96464 | 538 ft | 77 kts | 310° |
| 2026-05-04 12:00 | 53.81299 | 2.95734 | 526 ft | 79 kts | 299° |
| 2026-05-04 12:00 | 53.81564 | 2.94919 | 536 ft | 79 kts | 296° |
| 2026-05-04 12:00 | 53.81829 | 2.94107 | 567 ft | 74 kts | 294° |
| 2026-05-04 12:01 | 53.82074 | 2.93363 | 567 ft | 69 kts | 296° |
| 2026-05-04 12:01 | 53.82301 | 2.92688 | 545 ft | 64 kts | 297° |
| 2026-05-04 12:02 | 53.82785 | 2.93393 | 574 ft | 70 kts | 110° |
| 2026-05-04 12:03 | 53.82527 | 2.93886 | 407 ft | 49 kts | 80° |
| 2026-05-04 12:03 | 53.82488 | 2.94392 | 387 ft | 48 kts | 154° |
| 2026-05-04 12:03 | 53.82380 | 2.94528 | 275 ft | 11 kts | 230° |
| 2026-05-04 12:03 | 53.82325 | 2.94368 | 166 ft | 0 kts | 226° |
| 2026-05-04 12:04 | 53.82316 | 2.94416 | 169 ft | 15 kts | 140° |
| 2026-05-04 12:04 | 53.82182 | 2.94592 | 398 ft | 38 kts | 109° |
| 2026-05-04 12:04 | 53.81927 | 2.94997 | 758 ft | 68 kts | 129° |
| 2026-05-04 12:04 | 53.81534 | 2.95671 | 1145 ft | 91 kts | 123° |
| 2026-05-04 12:05 | 53.81142 | 2.96584 | 1527 ft | 100 kts | 110° |
| 2026-05-04 12:05 | 53.80765 | 2.97572 | 1842 ft | 99 kts | 111° |
| 2026-05-04 12:05 | 53.80359 | 2.98516 | 2099 ft | 100 kts | 117° |
| 2026-05-04 12:05 | 53.79926 | 2.99454 | 2364 ft | 102 kts | 117° |
| 2026-05-04 12:06 | 53.79496 | 3.00390 | 2624 ft | 102 kts | 117° |
| 2026-05-04 12:06 | 53.79061 | 3.01351 | 2879 ft | 103 kts | 117° |
| 2026-05-04 12:06 | 53.78718 | 3.02117 | 3063 ft | 103 kts | 115° |
| 2026-05-04 12:06 | 53.78428 | 3.02733 | 3090 ft | 105 kts | 116° |